createdAt,value
2022-12-08T00:04:20.152Z,4.46
2022-12-08T00:10:50.356Z,4.45
2022-12-08T00:17:03.350Z,4.41
2022-12-08T00:23:26.226Z,4.38
2022-12-08T00:29:46.167Z,4.35
2022-12-08T00:36:09.210Z,4.33
2022-12-08T00:42:29.148Z,4.33
2022-12-08T00:48:52.150Z,4.35
2022-12-08T00:55:12.168Z,4.35
2022-12-08T01:01:35.279Z,4.35
2022-12-08T01:07:55.187Z,4.34
2022-12-08T01:14:18.203Z,4.36
2022-12-08T01:20:38.138Z,4.36
2022-12-08T01:27:01.153Z,4.35
2022-12-08T01:33:21.181Z,4.33
2022-12-08T01:39:44.165Z,4.32
2022-12-08T01:46:04.213Z,4.33
2022-12-08T01:52:27.208Z,4.33
2022-12-08T01:58:47.155Z,4.33
2022-12-08T02:05:10.163Z,4.34
2022-12-08T02:11:30.195Z,4.35
2022-12-08T02:17:53.165Z,4.36
2022-12-08T02:24:13.151Z,4.38
2022-12-08T02:30:36.249Z,4.39
2022-12-08T02:36:56.194Z,4.39
2022-12-08T02:43:19.170Z,4.41
2022-12-08T02:49:39.295Z,4.44
2022-12-08T02:56:02.224Z,4.45
2022-12-08T03:02:22.200Z,4.44
2022-12-08T03:08:45.224Z,4.46
2022-12-08T03:15:05.147Z,4.48
2022-12-08T03:21:28.207Z,4.46
2022-12-08T03:27:49.197Z,4.45
2022-12-08T03:34:12.164Z,4.43
2022-12-08T03:40:32.219Z,4.43
2022-12-08T03:46:55.202Z,4.42
2022-12-08T03:53:15.171Z,4.42
2022-12-08T03:59:38.172Z,4.42
2022-12-08T04:05:58.164Z,4.42
2022-12-08T04:12:21.153Z,4.39
2022-12-08T04:18:41.149Z,4.37
2022-12-08T04:25:04.195Z,4.34
2022-12-08T04:31:24.332Z,4.35
2022-12-08T04:37:47.151Z,4.33
2022-12-08T04:44:07.179Z,4.32
2022-12-08T04:50:30.222Z,4.3
2022-12-08T04:56:50.134Z,4.29
2022-12-08T05:20:14.211Z,4.2
2022-12-08T05:26:37.152Z,4.16
2022-12-08T05:32:57.192Z,4.15
2022-12-08T05:39:20.263Z,4.15
2022-12-08T05:45:40.263Z,4.17
2022-12-08T05:52:03.204Z,4.19
2022-12-08T05:58:23.188Z,4.19
2022-12-08T06:04:46.210Z,4.19
2022-12-08T06:11:06.204Z,4.2
2022-12-08T06:17:29.241Z,4.22
2022-12-08T06:23:49.193Z,4.22
2022-12-08T06:30:12.221Z,4.22
2022-12-08T06:36:32.227Z,4.22
2022-12-08T06:42:55.254Z,4.25
2022-12-08T06:49:15.201Z,4.28
2022-12-08T07:01:58.281Z,4.38
2022-12-08T07:08:21.228Z,4.42
2022-12-08T07:14:41.189Z,4.45
2022-12-08T07:21:04.181Z,4.46
2022-12-08T07:27:24.261Z,4.46
2022-12-08T07:33:47.248Z,4.46
2022-12-08T07:40:07.508Z,4.46
2022-12-08T07:46:30.273Z,4.46
2022-12-08T07:52:50.186Z,4.47
2022-12-08T07:59:13.209Z,4.45
2022-12-08T08:05:33.259Z,4.46
2022-12-08T08:12:22.588Z,4.47
2022-12-08T08:18:16.164Z,4.48
2022-12-08T08:24:43.200Z,4.49
2022-12-08T08:30:59.304Z,4.49
2022-12-08T08:37:22.306Z,4.5
2022-12-08T08:43:42.280Z,4.5
2022-12-08T08:50:05.539Z,4.53
2022-12-08T08:56:25.217Z,4.57
2022-12-08T09:02:48.197Z,4.6
2022-12-08T09:09:08.189Z,4.65
2022-12-08T09:15:31.200Z,4.71
2022-12-08T09:21:51.189Z,4.76
2022-12-08T09:28:14.169Z,4.8
2022-12-08T09:34:34.267Z,4.82
2022-12-08T09:40:57.176Z,4.87
2022-12-08T09:47:17.186Z,4.89
2022-12-08T09:53:40.173Z,4.89
2022-12-08T10:00:00.172Z,4.93
2022-12-08T10:06:23.220Z,5
2022-12-08T10:21:54.122Z,4.86
2022-12-08T10:28:14.164Z,4.85
2022-12-08T10:34:37.148Z,4.88
2022-12-08T10:40:57.212Z,4.9
2022-12-08T10:47:20.150Z,4.88
2022-12-08T10:53:40.199Z,4.89
2022-12-08T11:00:04.095Z,4.95
2022-12-08T11:06:23.205Z,4.96
2022-12-08T11:12:46.180Z,4.99
2022-12-08T11:19:06.208Z,5
2022-12-08T11:25:29.181Z,4.97
2022-12-08T11:31:49.214Z,4.93
2022-12-08T11:38:21.364Z,4.91
2022-12-08T11:44:32.306Z,4.9
2022-12-08T11:50:55.157Z,4.9
2022-12-08T11:57:15.268Z,4.94
2022-12-08T12:03:38.330Z,5
2022-12-08T12:09:58.238Z,5.07
2022-12-08T12:16:21.360Z,5.15
2022-12-08T12:22:41.163Z,5.23
2022-12-08T12:29:04.208Z,5.32
2022-12-08T12:35:27.291Z,5.36
2022-12-08T12:41:47.192Z,5.4
2022-12-08T12:48:07.164Z,5.41
2022-12-08T12:54:30.210Z,5.43
2022-12-08T13:00:50.221Z,5.42
2022-12-08T13:07:13.225Z,5.37
2022-12-08T13:13:33.178Z,5.34
2022-12-08T13:19:56.182Z,5.32
2022-12-08T13:26:16.145Z,5.33
2022-12-08T13:33:09.624Z,5.37
2022-12-08T13:38:59.265Z,5.39
2022-12-08T13:58:06.266Z,5.38
2022-12-08T14:10:49.513Z,5.35
2022-12-08T14:17:09.202Z,5.32
2022-12-08T14:23:32.194Z,5.29
2022-12-08T14:29:52.247Z,5.27
2022-12-08T14:36:15.211Z,5.25
2022-12-08T14:42:35.208Z,5.22
2022-12-08T14:48:58.229Z,5.18
2022-12-08T14:55:18.218Z,5.14
2022-12-08T15:01:41.266Z,5.11
2022-12-08T15:08:01.279Z,5.08
2022-12-08T15:14:24.229Z,5.04
2022-12-08T15:31:07.205Z,4.95
2022-12-08T15:37:30.149Z,4.89
2022-12-08T15:43:50.151Z,4.83
2022-12-08T15:50:13.172Z,4.78
2022-12-08T15:56:34.390Z,4.72
2022-12-08T16:09:16.385Z,4.64
2022-12-08T16:15:51.512Z,4.61
2022-12-08T16:28:52.638Z,4.47
2022-12-08T16:34:42.159Z,4.39
2022-12-08T16:41:05.139Z,4.32
2022-12-08T16:47:25.186Z,4.27
2022-12-08T16:53:48.178Z,4.2
2022-12-08T17:00:08.372Z,4.12
2022-12-08T17:06:31.224Z,4.02
2022-12-08T17:12:51.144Z,3.91
2022-12-08T17:19:14.202Z,3.83
2022-12-08T17:25:34.190Z,3.75
2022-12-08T17:31:57.224Z,3.68
2022-12-08T17:38:17.176Z,3.59
2022-12-08T17:44:40.185Z,3.52
2022-12-08T17:51:00.242Z,3.44
2022-12-08T17:57:23.194Z,3.41
2022-12-08T18:03:43.229Z,3.24
2022-12-08T18:10:06.385Z,3.02
2022-12-08T18:16:26.259Z,2.86
2022-12-08T18:22:49.198Z,2.64
2022-12-08T18:29:09.173Z,2.46
2022-12-08T18:35:32.236Z,2.28
2022-12-08T18:41:52.229Z,2.13
2022-12-08T18:48:15.174Z,2.03
2022-12-08T18:54:57.990Z,1.91
2022-12-08T19:00:58.432Z,1.74
2022-12-08T19:07:18.192Z,1.66
2022-12-08T19:13:41.169Z,1.61
2022-12-08T19:20:01.185Z,1.54
2022-12-08T19:26:24.145Z,1.47
2022-12-08T19:32:44.274Z,1.44
2022-12-08T19:39:07.183Z,1.5
2022-12-08T19:45:27.216Z,1.54
2022-12-08T19:51:50.185Z,1.48
2022-12-08T19:58:10.167Z,1.5
2022-12-08T20:04:33.186Z,1.54
2022-12-08T20:10:53.176Z,1.6
2022-12-08T20:17:16.239Z,1.58
2022-12-08T20:23:36.238Z,1.57
2022-12-08T20:46:47.860Z,1.61
2022-12-08T20:53:06.224Z,1.58
2022-12-08T20:59:26.344Z,1.52
2022-12-08T21:05:49.321Z,1.42
2022-12-08T21:12:09.352Z,1.29
2022-12-08T21:18:37.564Z,1.2
2022-12-08T21:24:52.379Z,1.1
2022-12-08T21:31:15.407Z,0.99
2022-12-08T21:37:35.163Z,0.94
2022-12-08T21:43:58.250Z,0.9
2022-12-08T21:50:18.459Z,0.86
2022-12-08T21:56:41.344Z,0.8
2022-12-08T22:03:01.250Z,0.79
2022-12-08T22:09:24.238Z,0.79
2022-12-08T22:15:44.283Z,0.78
2022-12-08T22:22:07.564Z,0.74
2022-12-08T22:28:27.533Z,0.76
2022-12-08T22:34:50.388Z,0.83
2022-12-08T22:41:10.564Z,0.91
2022-12-08T22:47:33.315Z,0.89
2022-12-08T22:53:53.379Z,0.91
2022-12-08T23:00:16.240Z,0.99
2022-12-08T23:23:14.224Z,1.23
2022-12-08T23:29:34.335Z,1.32
2022-12-08T23:35:57.175Z,1.39
2022-12-08T23:42:17.203Z,1.36
2022-12-08T23:48:40.163Z,1.35
2022-12-08T23:55:00.403Z,1.33
